createdAt,value
2017-09-29T00:01:14.911Z,19.93
2017-09-29T00:03:43.205Z,18.30
2017-09-29T00:06:11.494Z,22.33
2017-09-29T00:08:39.013Z,21.30
2017-09-29T00:11:06.578Z,19.13
2017-09-29T00:13:34.122Z,23.80
2017-09-29T00:16:01.668Z,25.17
2017-09-29T00:18:29.161Z,24.10
2017-09-29T00:20:56.749Z,23.90
2017-09-29T00:23:24.240Z,25.10
2017-09-29T00:25:51.749Z,23.83
2017-09-29T00:28:19.245Z,23.07
2017-09-29T00:30:46.821Z,22.33
2017-09-29T00:33:14.366Z,25.67
2017-09-29T00:35:41.886Z,24.13
2017-09-29T00:38:10.178Z,23.47
2017-09-29T00:40:37.710Z,26.47
2017-09-29T00:43:06.006Z,22.90
2017-09-29T00:45:33.505Z,24.77
2017-09-29T00:48:01.022Z,25.17
2017-09-29T00:50:28.523Z,27.63
2017-09-29T00:52:56.034Z,27.97
2017-09-29T00:55:23.525Z,30.33
2017-09-29T00:57:51.033Z,30.07
2017-09-29T01:00:19.296Z,29.40
2017-09-29T01:02:47.682Z,27.33
2017-09-29T01:05:15.177Z,26.50
2017-09-29T01:07:42.688Z,28.73
2017-09-29T01:10:10.181Z,30.57
2017-09-29T01:12:38.465Z,29.40
2017-09-29T01:15:05.956Z,24.73
2017-09-29T01:17:33.457Z,24.33
2017-09-29T01:20:00.969Z,25.93
2017-09-29T01:22:29.226Z,26.07
2017-09-29T01:24:56.811Z,23.80
2017-09-29T01:27:24.358Z,25.50
2017-09-29T01:29:51.875Z,25.70
2017-09-29T01:32:20.134Z,23.73
2017-09-29T01:34:48.417Z,25.83
2017-09-29T01:37:15.909Z,24.73
2017-09-29T01:39:43.437Z,24.27
2017-09-29T01:42:10.929Z,20.93
2017-09-29T01:44:39.196Z,19.13
2017-09-29T01:47:07.474Z,20.70
2017-09-29T01:49:34.976Z,19.83
2017-09-29T01:52:02.482Z,19.97
2017-09-29T01:54:30.014Z,20.47
2017-09-29T01:56:57.525Z,20.80
2017-09-29T01:59:25.800Z,22.10
2017-09-29T02:01:53.354Z,22.70
2017-09-29T02:04:20.889Z,23.57
2017-09-29T02:06:48.436Z,23.60
2017-09-29T02:09:15.939Z,25.20
2017-09-29T02:11:43.476Z,25.17
2017-09-29T02:14:10.970Z,23.00
2017-09-29T02:16:38.470Z,26.07
2017-09-29T02:19:05.976Z,27.07
2017-09-29T02:21:33.492Z,25.30
2017-09-29T02:24:00.997Z,27.50
2017-09-29T02:26:28.495Z,29.63
2017-09-29T02:28:56.030Z,29.00
2017-09-29T02:31:23.570Z,29.97
2017-09-29T02:33:51.119Z,28.73
2017-09-29T02:36:18.653Z,29.43
2017-09-29T02:38:46.985Z,28.97
2017-09-29T02:41:14.473Z,31.43
2017-09-29T02:43:42.761Z,28.57
2017-09-29T02:46:10.305Z,29.00
2017-09-29T02:48:37.861Z,26.33
2017-09-29T02:51:05.393Z,27.30
2017-09-29T02:53:32.990Z,27.50
2017-09-29T02:56:02.098Z,25.73
2017-09-29T02:58:31.130Z,25.10
2017-09-29T03:00:59.541Z,24.10
2017-09-29T03:03:29.481Z,22.20
2017-09-29T03:05:58.897Z,24.90
2017-09-29T03:08:26.515Z,22.20
2017-09-29T03:10:54.135Z,23.57
2017-09-29T03:13:21.676Z,21.90
2017-09-29T03:15:49.165Z,23.77
2017-09-29T03:18:16.686Z,22.23
2017-09-29T03:20:44.182Z,22.60
2017-09-29T03:23:12.458Z,23.20
2017-09-29T03:25:40.738Z,22.33
2017-09-29T03:28:08.241Z,24.50
2017-09-29T03:30:35.740Z,23.97
2017-09-29T03:33:03.253Z,24.77
2017-09-29T03:35:30.750Z,22.83
2017-09-29T03:37:58.282Z,24.83
2017-09-29T03:40:25.777Z,23.37
2017-09-29T03:42:53.366Z,24.40
2017-09-29T03:45:20.971Z,23.83
2017-09-29T03:47:48.470Z,25.07
2017-09-29T03:50:16.729Z,25.27
2017-09-29T03:52:52.635Z,23.80
2017-09-29T03:55:21.035Z,24.27
2017-09-29T03:57:50.317Z,24.30
2017-09-29T04:00:17.837Z,23.50
2017-09-29T04:02:45.345Z,26.67
2017-09-29T04:05:12.861Z,28.03
2017-09-29T04:07:41.114Z,24.77
2017-09-29T04:10:08.636Z,26.00
2017-09-29T04:12:36.125Z,27.27
2017-09-29T04:15:04.388Z,26.50
2017-09-29T04:17:31.898Z,25.80
2017-09-29T04:19:59.492Z,27.80
2017-09-29T04:22:27.001Z,28.60
2017-09-29T04:24:55.284Z,28.27
2017-09-29T04:27:22.805Z,28.83
2017-09-29T04:29:51.065Z,28.50
2017-09-29T04:32:19.336Z,30.00
2017-09-29T04:34:47.597Z,31.70
2017-09-29T04:37:15.877Z,31.73
2017-09-29T04:39:43.376Z,30.27
2017-09-29T04:42:10.966Z,31.57
2017-09-29T04:44:38.514Z,33.00
2017-09-29T04:47:06.057Z,31.37
2017-09-29T04:49:33.560Z,33.47
2017-09-29T04:52:01.147Z,35.70
2017-09-29T04:54:28.661Z,36.33
2017-09-29T04:56:56.921Z,35.87
2017-09-29T04:59:25.197Z,35.40
2017-09-29T05:01:52.686Z,35.30
2017-09-29T05:04:20.289Z,34.50
2017-09-29T05:06:47.781Z,37.13
2017-09-29T05:09:15.378Z,35.47
2017-09-29T05:11:42.886Z,33.17
2017-09-29T05:14:10.469Z,36.67
2017-09-29T05:16:37.961Z,39.30
2017-09-29T05:19:05.444Z,38.00
2017-09-29T05:21:32.957Z,38.20
2017-09-29T05:24:00.453Z,34.10
2017-09-29T05:26:27.960Z,36.13
2017-09-29T05:28:56.221Z,38.47
2017-09-29T05:31:24.504Z,39.70
2017-09-29T05:33:51.997Z,36.97
2017-09-29T05:36:19.506Z,37.80
2017-09-29T05:38:47.032Z,35.20
2017-09-29T05:41:14.581Z,38.37
2017-09-29T05:43:42.135Z,40.77
2017-09-29T05:46:09.640Z,39.83
2017-09-29T05:48:37.894Z,40.10
2017-09-29T05:51:05.473Z,40.10
2017-09-29T05:53:33.013Z,41.93
2017-09-29T05:56:00.562Z,40.57
2017-09-29T05:58:28.104Z,40.27
2017-09-29T06:00:55.653Z,37.20
2017-09-29T06:03:23.196Z,39.17
2017-09-29T06:05:50.732Z,35.80
2017-09-29T06:08:18.281Z,37.20
2017-09-29T06:10:45.824Z,40.77
2017-09-29T06:13:13.339Z,40.30
2017-09-29T06:15:41.601Z,38.30
2017-09-29T06:18:09.897Z,39.80
2017-09-29T06:20:37.393Z,35.07
2017-09-29T06:23:04.903Z,38.57
2017-09-29T06:25:32.421Z,37.97
2017-09-29T06:27:59.944Z,37.30
2017-09-29T06:30:28.250Z,36.90
2017-09-29T06:32:55.746Z,33.60
2017-09-29T06:35:24.025Z,35.53
2017-09-29T06:37:51.517Z,34.47
2017-09-29T06:40:19.024Z,35.23
2017-09-29T06:42:46.561Z,30.87
2017-09-29T06:45:14.070Z,36.37
2017-09-29T06:47:41.561Z,32.80
2017-09-29T06:50:09.066Z,33.20
2017-09-29T06:52:37.325Z,31.33
2017-09-29T06:55:05.608Z,29.30
2017-09-29T06:57:33.096Z,33.40
2017-09-29T07:00:00.602Z,32.33
2017-09-29T07:02:28.097Z,30.83
2017-09-29T07:04:57.366Z,31.50
2017-09-29T07:07:24.857Z,30.23
2017-09-29T07:09:52.349Z,29.20
2017-09-29T07:12:19.862Z,26.80
2017-09-29T07:14:47.357Z,27.10
2017-09-29T07:17:14.877Z,26.40
2017-09-29T07:19:42.390Z,24.60
2017-09-29T07:22:09.902Z,24.10
2017-09-29T07:24:39.956Z,21.47
2017-09-29T07:27:08.230Z,18.60
2017-09-29T07:29:36.404Z,19.50
2017-09-29T07:32:05.484Z,18.20
2017-09-29T07:34:34.480Z,17.57
2017-09-29T07:37:02.847Z,16.90
2017-09-29T07:39:31.107Z,17.70
2017-09-29T07:41:59.396Z,16.83
2017-09-29T07:44:26.893Z,15.60
2017-09-29T07:46:54.386Z,16.77
2017-09-29T07:49:21.920Z,16.43
2017-09-29T07:51:49.417Z,14.90
2017-09-29T07:54:17.031Z,16.07
2017-09-29T07:56:44.571Z,15.57
2017-09-29T07:59:12.083Z,14.67
2017-09-29T08:01:40.345Z,16.10
2017-09-29T08:04:07.907Z,14.00
2017-09-29T08:06:35.448Z,14.80
2017-09-29T08:09:02.967Z,14.27
2017-09-29T08:11:31.253Z,15.47
2017-09-29T08:13:58.766Z,15.87
2017-09-29T08:16:27.026Z,15.80
2017-09-29T08:18:55.304Z,13.53
2017-09-29T08:21:23.572Z,14.77
2017-09-29T08:23:51.121Z,14.40
2017-09-29T08:26:18.680Z,15.47
2017-09-29T08:28:46.209Z,15.27
2017-09-29T08:31:13.753Z,12.20
2017-09-29T08:33:41.288Z,10.53
2017-09-29T08:36:08.829Z,10.80
2017-09-29T08:38:37.104Z,12.50
2017-09-29T08:41:04.608Z,11.87
2017-09-29T08:43:32.098Z,11.97
2017-09-29T08:45:59.606Z,12.20
2017-09-29T08:48:27.869Z,11.00
2017-09-29T08:50:56.141Z,9.73
2017-09-29T08:53:23.633Z,9.20
2017-09-29T08:55:51.143Z,8.87
2017-09-29T08:58:18.646Z,8.93
2017-09-29T09:00:46.155Z,8.50
2017-09-29T09:03:13.688Z,8.20
2017-09-29T09:05:41.209Z,7.33
2017-09-29T09:08:08.697Z,7.40
2017-09-29T09:10:36.297Z,7.03
2017-09-29T09:13:03.789Z,6.37
2017-09-29T09:15:31.380Z,6.20
2017-09-29T09:17:58.889Z,5.60
2017-09-29T09:20:26.386Z,6.13
2017-09-29T09:22:53.889Z,7.37
2017-09-29T09:25:22.173Z,6.73
2017-09-29T09:27:49.673Z,5.73
2017-09-29T09:30:17.182Z,6.10
2017-09-29T09:32:44.737Z,5.47
2017-09-29T09:35:12.265Z,5.40
2017-09-29T09:37:39.773Z,5.53
2017-09-29T09:40:08.030Z,6.17
2017-09-29T09:42:36.341Z,5.00
2017-09-29T09:45:03.825Z,6.27
2017-09-29T09:47:31.368Z,4.87
2017-09-29T09:49:58.882Z,5.90
2017-09-29T09:52:26.377Z,6.00
2017-09-29T09:54:54.639Z,6.10
2017-09-29T09:57:22.934Z,5.80
2017-09-29T09:59:50.449Z,5.20
2017-09-29T10:02:18.022Z,5.83
2017-09-29T10:04:45.529Z,5.07
2017-09-29T10:07:13.058Z,5.73
2017-09-29T10:09:41.324Z,5.90
2017-09-29T10:12:09.609Z,5.80
2017-09-29T10:14:37.145Z,6.17
2017-09-29T10:17:04.641Z,6.73
2017-09-29T10:19:32.259Z,6.53
2017-09-29T10:21:59.785Z,5.30
2017-09-29T10:24:27.285Z,5.50
2017-09-29T10:26:54.772Z,6.70
2017-09-29T10:29:22.298Z,5.63
2017-09-29T10:31:49.864Z,6.00
2017-09-29T10:34:17.361Z,6.03
2017-09-29T10:36:44.902Z,6.73
2017-09-29T10:39:12.417Z,5.70
2017-09-29T10:41:39.942Z,6.83
2017-09-29T10:44:07.476Z,6.50
2017-09-29T10:46:35.120Z,7.00
2017-09-29T10:49:02.617Z,6.20
2017-09-29T10:51:30.921Z,5.70
2017-09-29T10:53:58.420Z,4.70
2017-09-29T10:56:28.330Z,5.83
2017-09-29T10:58:55.817Z,6.53
2017-09-29T11:01:23.358Z,5.80
2017-09-29T11:03:50.897Z,5.73
2017-09-29T11:06:18.409Z,6.07
2017-09-29T11:08:45.904Z,6.57
2017-09-29T11:11:13.473Z,6.13
2017-09-29T11:13:40.968Z,6.83
2017-09-29T11:16:08.473Z,6.20
2017-09-29T11:18:35.965Z,4.93
2017-09-29T11:21:03.469Z,6.10
2017-09-29T11:23:30.982Z,5.80
2017-09-29T11:25:58.492Z,6.20
2017-09-29T11:28:26.008Z,5.57
2017-09-29T11:30:54.297Z,5.10
2017-09-29T11:33:21.840Z,4.80
2017-09-29T11:35:49.331Z,4.57
2017-09-29T11:38:17.126Z,4.80
2017-09-29T11:40:44.635Z,4.43
2017-09-29T11:43:12.940Z,4.63
2017-09-29T11:45:40.424Z,4.20
2017-09-29T11:48:08.017Z,3.90
2017-09-29T11:50:35.571Z,3.40
2017-09-29T11:53:03.089Z,4.07
2017-09-29T11:55:31.380Z,4.07
2017-09-29T11:57:58.890Z,4.03
2017-09-29T12:00:27.137Z,3.60
2017-09-29T12:02:54.718Z,4.80
2017-09-29T12:05:22.209Z,3.77
2017-09-29T12:07:49.817Z,4.20
2017-09-29T12:10:17.318Z,4.70
2017-09-29T12:12:45.596Z,3.97
2017-09-29T12:15:13.880Z,4.23
2017-09-29T12:17:41.377Z,3.97
2017-09-29T12:20:08.969Z,4.00
2017-09-29T12:22:36.532Z,3.63
2017-09-29T12:25:04.037Z,4.43
2017-09-29T12:27:31.529Z,4.60
2017-09-29T12:29:59.029Z,4.00
2017-09-29T12:32:26.512Z,3.80
2017-09-29T12:34:54.121Z,3.70
2017-09-29T12:37:21.669Z,3.00
2017-09-29T12:39:49.176Z,3.87
2017-09-29T12:42:16.676Z,2.90
2017-09-29T12:44:44.324Z,4.47
2017-09-29T12:47:11.816Z,3.17
2017-09-29T12:49:40.060Z,4.30
2017-09-29T12:52:07.573Z,4.17
2017-09-29T12:54:35.089Z,3.80
2017-09-29T12:57:02.637Z,4.30
2017-09-29T12:59:30.199Z,3.90
2017-09-29T13:01:57.744Z,3.67
2017-09-29T13:04:25.268Z,3.90
2017-09-29T13:06:52.764Z,3.47
2017-09-29T13:09:20.244Z,3.30
2017-09-29T13:11:47.749Z,3.43
2017-09-29T13:14:16.755Z,3.67
2017-09-29T13:16:45.025Z,3.53
2017-09-29T13:19:12.709Z,3.43
2017-09-29T13:21:40.224Z,5.17
2017-09-29T13:24:07.705Z,3.40
2017-09-29T13:26:35.313Z,3.20
2017-09-29T13:29:02.857Z,4.10
2017-09-29T13:31:30.368Z,3.70
2017-09-29T13:33:57.877Z,4.00
2017-09-29T13:36:25.369Z,3.57
2017-09-29T13:38:53.643Z,3.30
2017-09-29T13:41:21.124Z,3.73
2017-09-29T13:43:48.630Z,3.77
2017-09-29T13:46:16.185Z,3.27
2017-09-29T13:48:43.749Z,3.37
2017-09-29T13:51:11.254Z,2.93
2017-09-29T13:53:39.524Z,3.97
2017-09-29T13:56:07.012Z,3.87
2017-09-29T13:58:34.514Z,3.47
2017-09-29T14:01:02.061Z,3.50
2017-09-29T14:03:29.581Z,3.50
2017-09-29T14:05:57.837Z,3.60
2017-09-29T14:08:26.106Z,3.30
2017-09-29T14:10:54.376Z,3.90
2017-09-29T14:13:21.884Z,3.60
2017-09-29T14:15:49.362Z,3.43
2017-09-29T14:18:16.859Z,3.50
2017-09-29T14:20:44.361Z,3.80
2017-09-29T14:23:11.841Z,4.13
2017-09-29T14:25:39.340Z,3.50
2017-09-29T14:28:06.885Z,3.33
2017-09-29T14:30:34.390Z,3.67
2017-09-29T14:33:01.962Z,3.07
2017-09-29T14:35:29.521Z,3.70
2017-09-29T14:37:57.017Z,3.67
2017-09-29T14:40:24.530Z,3.23
2017-09-29T14:42:52.009Z,3.70
2017-09-29T14:45:19.508Z,3.70
2017-09-29T14:47:46.990Z,3.33
2017-09-29T14:50:14.552Z,3.40
2017-09-29T14:52:42.845Z,3.30
2017-09-29T14:55:10.482Z,3.73
2017-09-29T14:57:37.964Z,3.80
2017-09-29T15:00:05.472Z,3.03
2017-09-29T15:02:33.010Z,3.20
2017-09-29T15:05:00.493Z,4.10
2017-09-29T15:07:28.001Z,3.70
2017-09-29T15:09:55.536Z,3.40
2017-09-29T15:12:23.084Z,3.93
2017-09-29T15:14:50.572Z,4.33
2017-09-29T15:17:18.091Z,3.70
2017-09-29T15:19:45.585Z,3.70
2017-09-29T15:22:13.860Z,4.13
2017-09-29T15:24:42.117Z,4.67
2017-09-29T15:27:10.420Z,4.47
2017-09-29T15:29:37.905Z,4.10
2017-09-29T15:32:06.196Z,4.23
2017-09-29T15:34:33.685Z,3.70
2017-09-29T15:37:01.210Z,4.20
2017-09-29T15:39:28.698Z,4.37
2017-09-29T15:41:56.200Z,5.20
2017-09-29T15:44:23.685Z,5.40
2017-09-29T15:46:51.929Z,4.97
2017-09-29T15:49:19.428Z,5.03
2017-09-29T15:51:46.917Z,4.43
2017-09-29T15:54:14.425Z,5.40
2017-09-29T15:56:41.950Z,5.03
2017-09-29T15:59:09.484Z,4.60
2017-09-29T16:01:37.469Z,4.60
2017-09-29T16:04:04.973Z,4.63
2017-09-29T16:06:33.229Z,5.40
2017-09-29T16:09:01.510Z,4.20
2017-09-29T16:11:29.002Z,5.00
2017-09-29T16:13:56.512Z,4.73
2017-09-29T16:16:24.042Z,5.13
2017-09-29T16:18:51.590Z,4.57
2017-09-29T16:21:19.095Z,4.90
2017-09-29T16:23:46.581Z,5.20
2017-09-29T16:26:14.129Z,4.50
2017-09-29T16:28:41.624Z,5.33
2017-09-29T16:31:09.896Z,4.87
2017-09-29T16:33:38.159Z,4.97
2017-09-29T16:36:06.433Z,4.40
2017-09-29T16:38:33.994Z,4.90
2017-09-29T16:41:01.552Z,4.93
2017-09-29T16:43:29.076Z,4.80
2017-09-29T16:45:56.621Z,4.93
2017-09-29T16:48:24.119Z,5.03
2017-09-29T16:50:51.699Z,5.00
2017-09-29T16:53:19.180Z,5.33
2017-09-29T16:55:46.668Z,5.37
2017-09-29T16:58:14.189Z,4.60
2017-09-29T17:00:42.486Z,4.67
2017-09-29T17:03:09.989Z,4.83
2017-09-29T17:05:37.580Z,5.13
2017-09-29T17:08:05.126Z,4.87
2017-09-29T17:10:32.604Z,5.70
2017-09-29T17:13:00.103Z,5.30
2017-09-29T17:15:27.593Z,5.50
2017-09-29T17:17:55.197Z,4.10
2017-09-29T17:20:22.684Z,4.93
2017-09-29T17:22:50.173Z,4.57
2017-09-29T17:25:18.446Z,6.30
2017-09-29T17:27:45.928Z,6.10
2017-09-29T17:30:13.557Z,6.17
2017-09-29T17:32:41.046Z,5.67
2017-09-29T17:35:08.547Z,4.43
2017-09-29T17:37:36.068Z,5.50
2017-09-29T17:40:03.634Z,5.53
2017-09-29T17:42:31.253Z,4.80
2017-09-29T17:44:58.824Z,4.67
2017-09-29T17:47:26.368Z,5.00
2017-09-29T17:49:53.854Z,5.43
2017-09-29T17:52:22.152Z,5.43
2017-09-29T17:54:49.690Z,5.00
2017-09-29T17:57:17.200Z,4.90
2017-09-29T17:59:44.706Z,5.03
2017-09-29T18:02:12.208Z,5.23
2017-09-29T18:04:39.789Z,4.67
2017-09-29T18:07:07.314Z,5.87
2017-09-29T18:09:34.810Z,5.23
2017-09-29T18:12:02.402Z,5.33
2017-09-29T18:14:29.886Z,5.50
2017-09-29T18:16:57.383Z,6.50
2017-09-29T18:19:24.886Z,6.03
2017-09-29T18:21:53.284Z,5.80
2017-09-29T18:24:20.769Z,5.47
2017-09-29T18:26:48.503Z,5.63
2017-09-29T18:29:16.027Z,4.93
2017-09-29T18:31:43.592Z,5.30
2017-09-29T18:34:11.115Z,6.07
2017-09-29T18:36:38.665Z,6.00
2017-09-29T18:39:06.169Z,6.40
2017-09-29T18:41:36.285Z,6.70
2017-09-29T18:44:06.220Z,5.73
2017-09-29T18:46:43.624Z,6.43
2017-09-29T18:49:11.128Z,6.00
2017-09-29T18:51:38.665Z,6.10
2017-09-29T18:54:06.173Z,5.33
2017-09-29T18:56:33.656Z,5.57
2017-09-29T18:59:01.194Z,5.77
2017-09-29T19:01:28.737Z,6.37
2017-09-29T19:03:56.281Z,6.90
2017-09-29T19:06:23.766Z,7.13
2017-09-29T19:08:51.288Z,8.30
2017-09-29T19:11:18.775Z,7.30
2017-09-29T19:13:46.514Z,8.57
2017-09-29T19:16:14.078Z,7.10
2017-09-29T19:18:42.374Z,7.90
2017-09-29T19:21:09.913Z,7.93
2017-09-29T19:23:37.479Z,7.17
2017-09-29T19:26:05.001Z,7.00
2017-09-29T19:28:32.486Z,6.20
2017-09-29T19:30:59.984Z,6.70
2017-09-29T19:33:27.474Z,5.80
2017-09-29T19:35:55.000Z,6.40
2017-09-29T19:38:22.513Z,6.90
2017-09-29T19:40:50.001Z,6.10
2017-09-29T19:43:17.623Z,6.27
2017-09-29T19:45:45.169Z,6.70
2017-09-29T19:48:12.801Z,6.50
2017-09-29T19:50:40.336Z,6.50
2017-09-29T19:53:07.893Z,5.17
2017-09-29T19:55:35.379Z,6.50
2017-09-29T19:58:02.888Z,7.30
2017-09-29T20:00:30.373Z,6.93
2017-09-29T20:02:57.889Z,7.37
2017-09-29T20:05:25.393Z,6.90
2017-09-29T20:07:52.936Z,6.60
2017-09-29T20:10:20.480Z,7.90
2017-09-29T20:12:47.971Z,7.00
2017-09-29T20:15:15.485Z,8.10
2017-09-29T20:17:42.980Z,7.20
2017-09-29T20:20:10.489Z,7.70
2017-09-29T20:22:38.001Z,7.97
2017-09-29T20:25:05.510Z,7.20
2017-09-29T20:27:33.008Z,7.10
2017-09-29T20:30:00.510Z,6.80
2017-09-29T20:32:28.009Z,6.40
2017-09-29T20:34:55.536Z,7.93
2017-09-29T20:37:23.026Z,7.83
2017-09-29T20:39:51.290Z,6.63
2017-09-29T20:42:19.545Z,7.77
2017-09-29T20:44:47.038Z,7.60
2017-09-29T20:47:14.571Z,7.40
2017-09-29T20:49:42.112Z,6.97
2017-09-29T20:52:09.633Z,7.10
2017-09-29T20:54:37.916Z,7.30
2017-09-29T20:57:05.461Z,7.63
2017-09-29T20:59:32.944Z,8.07
2017-09-29T21:02:00.549Z,8.03
2017-09-29T21:04:28.090Z,7.53
2017-09-29T21:06:55.592Z,6.63
2017-09-29T21:09:23.081Z,7.77
2017-09-29T21:11:50.618Z,7.67
2017-09-29T21:14:18.128Z,7.03
2017-09-29T21:16:47.154Z,7.60
2017-09-29T21:19:14.648Z,8.20
2017-09-29T21:21:42.141Z,9.00
2017-09-29T21:24:09.669Z,7.30
2017-09-29T21:26:37.212Z,7.50
2017-09-29T21:29:04.721Z,7.50
2017-09-29T21:31:32.984Z,7.10
2017-09-29T21:34:00.489Z,8.33
2017-09-29T21:36:28.000Z,8.73
2017-09-29T21:38:55.504Z,11.57
2017-09-29T21:41:22.994Z,13.63
2017-09-29T21:43:50.557Z,13.90
2017-09-29T21:46:18.070Z,14.40
2017-09-29T21:48:45.726Z,13.67
2017-09-29T21:51:13.292Z,16.20
2017-09-29T21:53:40.789Z,17.40
2017-09-29T21:56:09.086Z,16.70
2017-09-29T21:58:36.620Z,16.60
2017-09-29T22:01:04.145Z,15.63
2017-09-29T22:03:32.445Z,14.93
2017-09-29T22:05:59.954Z,16.70
2017-09-29T22:08:27.465Z,16.40
2017-09-29T22:10:55.076Z,15.87
2017-09-29T22:13:22.569Z,16.43
2017-09-29T22:15:50.853Z,16.77
2017-09-29T22:18:18.357Z,14.43
2017-09-29T22:20:45.954Z,14.27
2017-09-29T22:23:13.493Z,14.50
2017-09-29T22:25:41.101Z,14.20
2017-09-29T22:28:08.601Z,14.77
2017-09-29T22:30:36.093Z,13.60
2017-09-29T22:33:04.406Z,14.27
2017-09-29T22:35:31.972Z,14.37
2017-09-29T22:37:59.495Z,13.27
2017-09-29T22:40:27.017Z,14.07
2017-09-29T22:42:54.557Z,12.20
2017-09-29T22:45:22.044Z,12.37
2017-09-29T22:47:49.639Z,11.93
2017-09-29T22:50:17.149Z,12.73
2017-09-29T22:52:44.826Z,11.97
2017-09-29T22:55:12.325Z,11.37
2017-09-29T22:57:39.933Z,9.67
2017-09-29T23:00:07.481Z,9.23
2017-09-29T23:02:34.973Z,9.77
2017-09-29T23:05:02.554Z,8.10
2017-09-29T23:07:30.045Z,8.40
2017-09-29T23:09:57.633Z,8.87
2017-09-29T23:12:25.890Z,7.70
2017-09-29T23:14:54.268Z,8.73
2017-09-29T23:17:21.748Z,8.57
2017-09-29T23:19:49.368Z,8.47
2017-09-29T23:22:16.891Z,9.00
2017-09-29T23:24:44.454Z,9.20
2017-09-29T23:27:11.993Z,9.03
2017-09-29T23:29:39.536Z,9.67
2017-09-29T23:32:07.026Z,9.20
2017-09-29T23:34:34.646Z,8.47
2017-09-29T23:37:02.129Z,8.47
2017-09-29T23:39:29.710Z,9.10
2017-09-29T23:41:57.253Z,9.07
2017-09-29T23:44:24.736Z,9.80
2017-09-29T23:46:52.337Z,8.27
2017-09-29T23:49:19.819Z,8.00
2017-09-29T23:51:47.329Z,10.10
2017-09-29T23:54:15.109Z,9.13
2017-09-29T23:56:42.616Z,7.37
2017-09-29T23:59:10.101Z,8.37
